createdAt,value
2023-02-02T00:01:30.197Z,74.32
2023-02-02T00:04:03.112Z,74.22
2023-02-02T00:06:37.016Z,74.01
2023-02-02T00:09:12.047Z,73.98
2023-02-02T00:11:46.344Z,73.97
2023-02-02T00:14:19.901Z,74.62
2023-02-02T00:16:53.755Z,74.15
2023-02-02T00:19:28.293Z,74.37
2023-02-02T00:22:02.387Z,74.23
2023-02-02T00:24:35.061Z,74.21
2023-02-02T00:27:07.733Z,74.22
2023-02-02T00:29:40.855Z,74.51
2023-02-02T00:32:13.418Z,74.25
2023-02-02T00:34:46.405Z,74.30
2023-02-02T00:37:20.451Z,74.07
2023-02-02T00:39:53.206Z,74.78
2023-02-02T00:42:25.941Z,74.18
2023-02-02T00:45:16.152Z,74.47
2023-02-02T00:47:50.541Z,74.03
2023-02-02T00:50:23.955Z,74.54
2023-02-02T00:52:58.941Z,74.19
2023-02-02T00:55:32.122Z,74.38
2023-02-02T00:58:04.864Z,74.06
2023-02-02T01:00:37.812Z,74.00
2023-02-02T01:03:11.737Z,74.23
2023-02-02T01:05:44.523Z,74.28
2023-02-02T01:08:18.633Z,74.46
2023-02-02T01:10:51.332Z,74.60
2023-02-02T01:13:24.027Z,74.03
2023-02-02T01:15:57.316Z,74.24
2023-02-02T01:18:32.674Z,74.41
2023-02-02T01:21:08.000Z,73.97
2023-02-02T01:23:42.804Z,74.38
2023-02-02T01:26:16.791Z,74.60
2023-02-02T01:28:50.241Z,74.13
2023-02-02T01:31:23.208Z,74.07
2023-02-02T01:33:55.762Z,74.33
2023-02-02T01:36:28.549Z,74.04
2023-02-02T01:39:02.739Z,73.92
2023-02-02T01:41:35.887Z,74.41
2023-02-02T01:44:53.524Z,74.13
2023-02-02T01:47:30.385Z,74.17
2023-02-02T01:50:04.335Z,74.41
2023-02-02T01:52:38.815Z,74.41
2023-02-02T01:55:15.626Z,74.40
2023-02-02T01:57:53.206Z,74.93
2023-02-02T02:00:27.832Z,74.20
2023-02-02T02:03:06.005Z,74.47
2023-02-02T02:05:47.365Z,73.97
2023-02-02T02:08:24.624Z,74.01
2023-02-02T02:10:59.270Z,74.44
2023-02-02T02:13:51.027Z,74.31
2023-02-02T02:16:33.467Z,74.51
2023-02-02T02:19:24.587Z,74.71
2023-02-02T02:22:21.212Z,74.63
2023-02-02T02:25:56.485Z,74.35
2023-02-02T02:28:54.850Z,74.03
2023-02-02T02:31:52.562Z,74.27
2023-02-02T02:34:37.099Z,74.63
2023-02-02T02:37:17.445Z,74.60
2023-02-02T02:39:54.774Z,75.45
2023-02-02T02:42:31.943Z,74.46
2023-02-02T02:45:06.989Z,75.02
2023-02-02T02:47:42.514Z,74.30
2023-02-02T02:50:15.247Z,74.72
2023-02-02T02:52:50.491Z,74.82
2023-02-02T02:55:25.737Z,74.60
2023-02-02T02:58:08.109Z,75.06
2023-02-02T03:00:49.443Z,74.68
2023-02-02T03:03:37.313Z,74.29
2023-02-02T03:06:17.446Z,74.70
2023-02-02T03:08:55.239Z,74.96
2023-02-02T03:11:27.962Z,74.75
2023-02-02T03:14:03.014Z,74.44
2023-02-02T03:16:35.857Z,75.11
2023-02-02T03:19:10.529Z,75.11
2023-02-02T03:21:43.337Z,74.58
2023-02-02T03:24:16.064Z,74.60
2023-02-02T03:26:48.840Z,74.88
2023-02-02T03:29:21.695Z,74.79
2023-02-02T03:31:54.558Z,74.63
2023-02-02T03:34:29.083Z,74.84
2023-02-02T03:37:01.915Z,75.18
2023-02-02T03:39:34.584Z,74.78
2023-02-02T03:42:07.639Z,74.79
2023-02-02T03:44:40.292Z,75.18
2023-02-02T03:47:13.025Z,75.14
2023-02-02T03:49:47.163Z,74.87
2023-02-02T03:52:20.084Z,74.77
2023-02-02T03:54:53.087Z,74.69
2023-02-02T03:57:25.783Z,75.21
2023-02-02T03:59:59.242Z,74.70
2023-02-02T04:02:32.114Z,74.80
2023-02-02T04:05:08.941Z,74.75
2023-02-02T04:07:41.860Z,74.52
2023-02-02T04:10:14.588Z,74.99
2023-02-02T04:12:47.770Z,74.68
2023-02-02T04:15:20.428Z,75.28
2023-02-02T04:17:53.090Z,74.50
2023-02-02T04:20:27.200Z,75.07
2023-02-02T04:22:59.995Z,75.14
2023-02-02T04:25:32.837Z,74.29
2023-02-02T04:28:05.997Z,74.47
2023-02-02T04:30:38.823Z,74.57
2023-02-02T04:33:11.585Z,74.50
2023-02-02T04:35:46.127Z,74.68
2023-02-02T04:38:18.790Z,74.56
2023-02-02T04:40:51.872Z,74.23
2023-02-02T04:43:24.749Z,74.21
2023-02-02T04:45:57.776Z,74.83
2023-02-02T04:48:31.210Z,75.00
2023-02-02T04:51:07.549Z,74.56
2023-02-02T04:53:41.159Z,74.87
2023-02-02T04:56:17.210Z,75.28
2023-02-02T04:58:49.861Z,74.60
2023-02-02T05:01:23.600Z,74.93
2023-02-02T05:03:56.425Z,74.78
2023-02-02T05:06:30.432Z,74.57
2023-02-02T05:09:03.167Z,75.00
2023-02-02T05:11:36.531Z,74.29
2023-02-02T05:14:09.729Z,74.91
2023-02-02T05:16:42.835Z,74.95
2023-02-02T05:19:16.878Z,74.99
2023-02-02T05:21:51.445Z,74.71
2023-02-02T05:24:26.004Z,75.06
2023-02-02T05:27:00.649Z,74.72
2023-02-02T05:29:33.424Z,74.59
2023-02-02T05:32:06.413Z,74.45
2023-02-02T05:34:39.524Z,75.16
2023-02-02T05:37:13.597Z,74.57
2023-02-02T05:39:46.284Z,74.12
2023-02-02T05:42:19.006Z,75.08
2023-02-02T05:44:51.730Z,73.87
2023-02-02T05:47:24.546Z,74.62
2023-02-02T05:49:57.764Z,75.22
2023-02-02T05:52:35.819Z,74.82
2023-02-02T05:55:09.742Z,74.83
2023-02-02T05:57:42.434Z,74.75
2023-02-02T06:00:15.881Z,74.54
2023-02-02T06:02:49.612Z,74.80
2023-02-02T06:05:22.711Z,75.11
2023-02-02T06:07:57.152Z,74.84
2023-02-02T06:10:31.439Z,74.59
2023-02-02T06:13:04.253Z,75.12
2023-02-02T06:15:37.843Z,75.02
2023-02-02T06:18:11.405Z,74.88
2023-02-02T06:20:44.155Z,75.51
2023-02-02T06:23:18.155Z,74.60
2023-02-02T06:25:50.938Z,74.49
2023-02-02T06:28:23.710Z,74.66
2023-02-02T06:30:56.455Z,74.98
2023-02-02T06:33:29.285Z,74.74
2023-02-02T06:36:02.696Z,74.61
2023-02-02T06:38:36.787Z,74.72
2023-02-02T06:41:09.511Z,74.90
2023-02-02T06:43:42.184Z,74.79
2023-02-02T06:46:14.960Z,74.83
2023-02-02T06:48:47.740Z,74.56
2023-02-02T06:51:20.740Z,75.16
2023-02-02T06:53:56.470Z,74.91
2023-02-02T06:56:31.227Z,74.82
2023-02-02T06:59:04.412Z,74.93
2023-02-02T07:01:37.473Z,74.71
2023-02-02T07:04:10.522Z,74.65
2023-02-02T07:06:43.414Z,74.56
2023-02-02T07:09:17.940Z,75.33
2023-02-02T07:11:50.780Z,75.04
2023-02-02T07:14:23.679Z,74.43
2023-02-02T07:16:56.351Z,75.66
2023-02-02T07:19:29.274Z,75.02
2023-02-02T07:22:02.018Z,74.60
2023-02-02T07:24:38.108Z,75.06
2023-02-02T07:27:10.979Z,75.05
2023-02-02T07:29:43.705Z,74.91
2023-02-02T07:32:16.480Z,74.58
2023-02-02T07:34:49.190Z,74.86
2023-02-02T07:37:22.005Z,74.40
2023-02-02T07:39:58.768Z,76.12
2023-02-02T07:42:31.570Z,74.61
2023-02-02T07:45:27.520Z,74.65
2023-02-02T07:47:59.146Z,75.05
2023-02-02T07:50:32.313Z,74.87
2023-02-02T07:53:05.200Z,75.68
2023-02-02T07:55:39.444Z,75.01
2023-02-02T07:58:12.175Z,74.64
2023-02-02T08:00:45.470Z,74.40
2023-02-02T08:03:18.198Z,74.74
2023-02-02T08:05:51.150Z,74.89
2023-02-02T08:08:24.097Z,74.87
2023-02-02T08:10:58.445Z,74.62
2023-02-02T08:13:31.159Z,74.15
2023-02-02T08:16:04.081Z,74.44
2023-02-02T08:18:36.977Z,74.70
2023-02-02T08:21:11.488Z,74.80
2023-02-02T08:23:45.553Z,74.73
2023-02-02T08:26:22.224Z,74.86
2023-02-02T08:28:58.483Z,74.56
2023-02-02T08:31:32.841Z,74.23
2023-02-02T08:34:06.547Z,74.57
2023-02-02T08:36:39.427Z,74.28
2023-02-02T08:39:14.315Z,74.73
2023-02-02T08:41:48.362Z,74.39
2023-02-02T08:44:21.063Z,74.77
2023-02-02T08:46:56.515Z,74.70
2023-02-02T08:49:29.217Z,74.84
2023-02-02T08:52:02.288Z,74.06
2023-02-02T08:54:35.582Z,74.14
2023-02-02T08:57:09.600Z,74.30
2023-02-02T08:59:42.267Z,74.13
2023-02-02T09:02:15.148Z,75.07
2023-02-02T09:04:48.615Z,74.05
2023-02-02T09:07:21.373Z,74.15
2023-02-02T09:09:55.753Z,74.06
2023-02-02T09:12:29.832Z,73.80
2023-02-02T09:15:03.321Z,73.94
2023-02-02T09:17:36.541Z,73.92
2023-02-02T09:20:10.010Z,73.87
2023-02-02T09:22:44.875Z,74.05
2023-02-02T09:25:17.676Z,74.48
2023-02-02T09:27:51.981Z,74.02
2023-02-02T09:30:24.890Z,74.67
2023-02-02T09:32:57.452Z,74.22
2023-02-02T09:35:30.117Z,74.11
2023-02-02T09:38:03.000Z,73.80
2023-02-02T09:40:36.395Z,73.92
2023-02-02T09:43:26.583Z,73.87
2023-02-02T09:46:06.771Z,74.18
2023-02-02T09:48:49.721Z,74.60
2023-02-02T09:51:27.171Z,73.76
2023-02-02T09:54:06.126Z,73.76
2023-02-02T09:56:43.218Z,73.70
2023-02-02T09:59:24.485Z,73.93
2023-02-02T10:02:03.564Z,73.80
2023-02-02T10:04:38.023Z,74.36
2023-02-02T10:07:18.454Z,73.35
2023-02-02T10:09:59.982Z,73.76
2023-02-02T10:12:41.404Z,73.52
2023-02-02T10:15:20.759Z,73.15
2023-02-02T10:17:58.563Z,73.40
2023-02-02T10:20:40.398Z,73.36
2023-02-02T10:23:22.585Z,73.25
2023-02-02T10:26:05.443Z,72.94
2023-02-02T10:28:45.434Z,73.48
2023-02-02T10:31:37.633Z,73.50
2023-02-02T10:34:17.884Z,73.16
2023-02-02T10:37:21.393Z,73.57
2023-02-02T10:40:10.044Z,73.85
2023-02-02T10:43:09.236Z,73.37
2023-02-02T10:45:44.908Z,73.47
2023-02-02T10:48:23.245Z,74.03
2023-02-02T10:51:00.643Z,73.43
2023-02-02T10:53:34.416Z,73.39
2023-02-02T10:56:11.746Z,74.39
2023-02-02T10:58:51.657Z,73.25
2023-02-02T11:01:24.507Z,73.23
2023-02-02T11:04:16.492Z,72.76
2023-02-02T11:06:52.327Z,73.95
2023-02-02T11:09:28.541Z,74.17
2023-02-02T11:12:07.883Z,75.06
2023-02-02T11:14:46.327Z,74.66
2023-02-02T11:17:22.218Z,74.34
2023-02-02T11:19:56.795Z,74.14
2023-02-02T11:22:34.101Z,72.59
2023-02-02T11:25:23.367Z,73.93
2023-02-02T11:27:56.317Z,73.13
2023-02-02T11:30:34.566Z,73.80
2023-02-02T11:33:22.857Z,74.87
2023-02-02T11:35:58.839Z,74.90
2023-02-02T11:38:32.381Z,74.75
2023-02-02T11:41:09.186Z,75.43
2023-02-02T11:43:51.070Z,74.40
2023-02-02T11:46:29.301Z,75.60
2023-02-02T11:49:05.354Z,74.10
2023-02-02T11:51:39.537Z,75.13
2023-02-02T11:54:19.205Z,75.53
2023-02-02T11:56:55.093Z,75.46
2023-02-02T11:59:33.978Z,75.20
2023-02-02T12:02:23.613Z,74.93
2023-02-02T12:05:14.998Z,74.92
2023-02-02T12:07:50.161Z,75.30
2023-02-02T12:10:32.833Z,75.09
2023-02-02T12:13:10.883Z,75.17
2023-02-02T12:15:51.898Z,75.56
2023-02-02T12:18:42.008Z,75.94
2023-02-02T12:21:22.730Z,76.18
2023-02-02T12:24:15.438Z,76.03
2023-02-02T12:26:56.730Z,74.97
2023-02-02T12:29:50.428Z,76.03
2023-02-02T12:32:33.923Z,76.09
2023-02-02T12:35:28.931Z,76.17
2023-02-02T12:38:12.044Z,76.25
2023-02-02T12:41:14.988Z,76.55
2023-02-02T12:43:51.995Z,76.53
2023-02-02T12:46:41.287Z,77.01
2023-02-02T12:49:39.718Z,76.81
2023-02-02T12:52:26.878Z,76.61
2023-02-02T12:55:16.043Z,76.29
2023-02-02T12:57:56.980Z,76.93
2023-02-02T13:00:46.293Z,76.94
2023-02-02T13:03:40.844Z,76.87
2023-02-02T13:06:54.255Z,76.94
2023-02-02T13:09:31.287Z,77.02
2023-02-02T13:12:09.365Z,77.06
2023-02-02T13:14:47.680Z,76.95
2023-02-02T13:17:26.648Z,76.88
2023-02-02T13:20:04.436Z,76.97
2023-02-02T13:22:42.061Z,76.47
2023-02-02T13:25:20.275Z,76.96
2023-02-02T13:27:54.631Z,77.37
2023-02-02T13:30:34.126Z,77.19
2023-02-02T13:33:14.594Z,76.94
2023-02-02T13:35:52.672Z,77.05
2023-02-02T13:38:27.484Z,76.80
2023-02-02T13:41:03.306Z,77.20
2023-02-02T13:43:43.994Z,77.20
2023-02-02T13:46:27.029Z,76.84
2023-02-02T13:49:08.436Z,77.50
2023-02-02T13:51:54.773Z,77.60
2023-02-02T13:55:19.354Z,77.23
2023-02-02T13:58:17.210Z,77.33
2023-02-02T14:00:52.933Z,77.46
2023-02-02T14:03:38.833Z,77.78
2023-02-02T14:06:15.612Z,77.27
2023-02-02T14:08:55.095Z,76.71
2023-02-02T14:11:31.845Z,76.85
2023-02-02T14:14:32.676Z,77.29
2023-02-02T14:17:08.568Z,77.15
2023-02-02T14:19:59.409Z,77.35
2023-02-02T14:22:47.833Z,76.96
2023-02-02T14:25:53.289Z,76.50
2023-02-02T14:28:44.706Z,76.88
2023-02-02T14:31:28.396Z,76.51
2023-02-02T14:34:34.820Z,77.33
2023-02-02T14:37:29.667Z,76.74
2023-02-02T14:40:21.863Z,76.96
2023-02-02T14:43:24.874Z,77.01
2023-02-02T14:46:34.651Z,77.05
2023-02-02T14:49:17.934Z,76.86
2023-02-02T14:52:02.208Z,76.82
2023-02-02T14:54:40.919Z,76.71
2023-02-02T14:57:25.324Z,77.16
2023-02-02T15:00:01.297Z,76.64
2023-02-02T15:02:39.249Z,76.95
2023-02-02T15:05:39.109Z,77.07
2023-02-02T15:08:26.770Z,76.78
2023-02-02T15:11:32.376Z,76.87
2023-02-02T15:14:14.743Z,76.49
2023-02-02T15:16:48.573Z,76.91
2023-02-02T15:19:32.309Z,76.68
2023-02-02T15:22:31.599Z,76.97
2023-02-02T15:25:13.582Z,76.60
2023-02-02T15:27:56.950Z,76.32
2023-02-02T15:30:35.523Z,76.51
2023-02-02T15:33:21.797Z,76.73
2023-02-02T15:35:55.700Z,76.31
2023-02-02T15:38:35.122Z,76.83
2023-02-02T15:41:17.034Z,76.58
2023-02-02T15:43:57.989Z,76.40
2023-02-02T15:46:44.551Z,77.35
2023-02-02T15:49:45.939Z,77.19
2023-02-02T15:52:33.208Z,76.35
2023-02-02T15:55:31.693Z,76.94
2023-02-02T15:58:27.699Z,76.77
2023-02-02T16:01:04.752Z,76.96
2023-02-02T16:03:48.063Z,76.75
2023-02-02T16:06:28.129Z,76.78
2023-02-02T16:09:03.497Z,76.70
2023-02-02T16:11:48.611Z,76.68
2023-02-02T16:14:21.905Z,76.52
2023-02-02T16:16:57.062Z,76.66
2023-02-02T16:19:30.260Z,76.99
2023-02-02T16:22:16.551Z,76.39
2023-02-02T16:24:56.274Z,76.61
2023-02-02T16:27:49.566Z,77.21
2023-02-02T16:30:29.133Z,76.69
2023-02-02T16:33:40.892Z,76.92
2023-02-02T16:36:26.225Z,76.47
2023-02-02T16:39:09.252Z,77.19
2023-02-02T16:41:47.340Z,77.43
2023-02-02T16:44:40.818Z,76.70
2023-02-02T16:47:43.311Z,76.98
2023-02-02T16:50:29.611Z,77.49
2023-02-02T16:53:04.467Z,76.60
2023-02-02T16:55:50.047Z,76.70
2023-02-02T16:58:25.298Z,76.61
2023-02-02T17:01:15.040Z,76.80
2023-02-02T17:03:53.976Z,76.15
2023-02-02T17:06:42.145Z,76.65
2023-02-02T17:09:34.525Z,77.23
2023-02-02T17:12:34.193Z,76.66
2023-02-02T17:15:29.125Z,77.24
2023-02-02T17:18:06.067Z,76.48
2023-02-02T17:20:42.133Z,75.98
2023-02-02T17:23:19.620Z,76.56
2023-02-02T17:25:54.091Z,76.38
2023-02-02T17:28:29.644Z,76.73
2023-02-02T17:31:06.813Z,76.71
2023-02-02T17:33:40.421Z,76.39
2023-02-02T17:36:14.143Z,76.32
2023-02-02T17:38:48.649Z,76.54
2023-02-02T17:41:21.507Z,75.99
2023-02-02T17:43:54.252Z,76.51
2023-02-02T17:46:28.514Z,76.42
2023-02-02T17:49:01.983Z,76.32
2023-02-02T17:51:41.024Z,76.64
2023-02-02T17:54:17.301Z,76.29
2023-02-02T17:56:50.287Z,76.45
2023-02-02T17:59:22.842Z,76.23
2023-02-02T18:01:55.779Z,76.88
2023-02-02T18:04:28.485Z,76.48
2023-02-02T18:07:02.374Z,77.40
2023-02-02T18:09:37.054Z,76.71
2023-02-02T18:12:09.916Z,76.33
2023-02-02T18:14:46.279Z,76.94
2023-02-02T18:17:19.138Z,76.81
2023-02-02T18:19:52.987Z,76.36
2023-02-02T18:22:31.389Z,76.77
2023-02-02T18:25:06.130Z,76.43
2023-02-02T18:27:39.027Z,77.05
2023-02-02T18:30:13.489Z,76.40
2023-02-02T18:32:46.291Z,76.42
2023-02-02T18:35:19.049Z,76.29
2023-02-02T18:37:52.269Z,76.32
2023-02-02T18:40:26.491Z,75.67
2023-02-02T18:42:59.242Z,75.82
2023-02-02T18:45:32.102Z,75.89
2023-02-02T18:48:05.107Z,76.64
2023-02-02T18:50:38.553Z,76.08
2023-02-02T18:53:11.260Z,76.37
2023-02-02T18:55:45.496Z,76.32
2023-02-02T18:58:18.286Z,76.07
2023-02-02T19:00:52.161Z,76.14
2023-02-02T19:03:25.014Z,76.20
2023-02-02T19:06:16.847Z,75.99
2023-02-02T19:08:49.757Z,75.73
2023-02-02T19:11:29.545Z,75.82
2023-02-02T19:14:14.036Z,76.41
2023-02-02T19:16:49.526Z,75.86
2023-02-02T19:19:31.130Z,76.39
2023-02-02T19:22:15.670Z,76.64
2023-02-02T19:24:49.441Z,76.58
2023-02-02T19:27:27.542Z,76.27
2023-02-02T19:30:08.667Z,76.30
2023-02-02T19:32:45.518Z,76.87
2023-02-02T19:35:21.811Z,76.93
2023-02-02T19:38:03.536Z,77.27
2023-02-02T19:40:43.980Z,77.24
2023-02-02T19:43:27.434Z,76.47
2023-02-02T19:46:01.486Z,76.89
2023-02-02T19:48:36.686Z,77.05
2023-02-02T19:51:33.653Z,77.51
2023-02-02T19:54:24.680Z,77.24
2023-02-02T19:57:01.739Z,76.93
2023-02-02T19:59:36.572Z,77.25
2023-02-02T20:02:43.247Z,76.90
2023-02-02T20:05:20.061Z,77.01
2023-02-02T20:07:57.647Z,77.37
2023-02-02T20:10:38.113Z,77.13
2023-02-02T20:13:15.708Z,76.95
2023-02-02T20:15:50.802Z,77.03
2023-02-02T20:18:27.365Z,77.07
2023-02-02T20:21:00.358Z,77.03
2023-02-02T20:23:41.713Z,76.91
2023-02-02T20:26:22.749Z,77.35
2023-02-02T20:28:57.371Z,77.38
2023-02-02T20:31:38.839Z,76.86
2023-02-02T20:34:24.493Z,77.00
2023-02-02T20:37:01.973Z,77.43
2023-02-02T20:39:37.450Z,76.94
2023-02-02T20:42:10.287Z,77.23
2023-02-02T20:44:44.904Z,77.55
2023-02-02T20:47:19.712Z,77.16
2023-02-02T20:49:52.973Z,77.36
2023-02-02T20:52:26.418Z,77.60
2023-02-02T20:55:01.781Z,77.22
2023-02-02T20:57:34.881Z,76.98
2023-02-02T21:00:10.935Z,76.94
2023-02-02T21:02:47.616Z,77.00
2023-02-02T21:05:21.003Z,77.23
2023-02-02T21:07:58.715Z,77.49
2023-02-02T21:10:31.991Z,77.72
2023-02-02T21:13:07.573Z,77.62
2023-02-02T21:15:40.590Z,77.50
2023-02-02T21:18:15.066Z,77.15
2023-02-02T21:20:48.330Z,77.54
2023-02-02T21:23:21.749Z,77.76
2023-02-02T21:25:54.830Z,77.53
2023-02-02T21:28:35.256Z,77.56
2023-02-02T21:31:08.813Z,77.55
2023-02-02T21:33:44.100Z,77.30
2023-02-02T21:36:32.514Z,77.18
2023-02-02T21:39:25.094Z,77.16
2023-02-02T21:42:15.172Z,77.52
2023-02-02T21:44:53.807Z,77.09
2023-02-02T21:47:30.375Z,77.21
2023-02-02T21:50:19.966Z,77.22
2023-02-02T21:52:57.175Z,77.20
2023-02-02T21:55:38.112Z,77.33
2023-02-02T21:58:18.886Z,77.23
2023-02-02T22:00:52.420Z,77.10
2023-02-02T22:03:33.166Z,77.19
2023-02-02T22:06:23.950Z,76.49
2023-02-02T22:09:02.366Z,77.07
2023-02-02T22:11:47.726Z,76.99
2023-02-02T22:14:28.014Z,77.24
2023-02-02T22:17:01.583Z,76.90
2023-02-02T22:19:36.184Z,77.09
2023-02-02T22:22:16.852Z,77.01
2023-02-02T22:24:56.868Z,76.87
2023-02-02T22:27:41.463Z,77.17
2023-02-02T22:30:21.251Z,77.28
2023-02-02T22:32:54.997Z,76.82
2023-02-02T22:35:27.812Z,76.68
2023-02-02T22:38:02.490Z,76.90
2023-02-02T22:40:35.832Z,76.62
2023-02-02T22:43:08.714Z,76.73
2023-02-02T22:45:41.466Z,77.43
2023-02-02T22:48:15.639Z,77.14
2023-02-02T22:50:48.435Z,77.32
2023-02-02T22:53:22.483Z,77.01
2023-02-02T22:55:56.700Z,77.27
2023-02-02T22:58:29.419Z,77.01
2023-02-02T23:01:02.034Z,76.60
2023-02-02T23:03:34.981Z,77.33
2023-02-02T23:06:07.975Z,76.67
2023-02-02T23:08:42.022Z,76.74
2023-02-02T23:11:14.777Z,76.67
2023-02-02T23:13:47.459Z,76.78
2023-02-02T23:16:20.269Z,77.07
2023-02-02T23:18:53.089Z,76.93
2023-02-02T23:21:26.035Z,76.84
2023-02-02T23:24:00.062Z,76.73
2023-02-02T23:26:32.734Z,76.42
2023-02-02T23:29:05.485Z,76.61
2023-02-02T23:31:38.239Z,76.49
2023-02-02T23:34:11.038Z,76.15
2023-02-02T23:36:43.808Z,76.43
2023-02-02T23:39:17.859Z,76.35
2023-02-02T23:41:50.736Z,76.65
2023-02-02T23:44:23.423Z,76.67
2023-02-02T23:46:56.404Z,76.55
2023-02-02T23:49:29.042Z,77.12
2023-02-02T23:52:01.975Z,76.31
2023-02-02T23:54:37.224Z,76.64
2023-02-02T23:57:10.050Z,76.82
2023-02-02T23:59:42.750Z,76.58
